createdAt,value
2023-01-12T00:03:23.408Z,95.16
2023-01-12T00:08:19.978Z,95.05
2023-01-12T00:13:16.569Z,94.86
2023-01-12T00:18:13.727Z,93.20
2023-01-12T00:23:11.718Z,92.52
2023-01-12T00:28:08.225Z,91.29
2023-01-12T00:33:04.957Z,90.51
2023-01-12T00:38:03.150Z,90.12
2023-01-12T00:43:17.882Z,89.89
2023-01-12T00:48:15.005Z,91.89
2023-01-12T00:53:12.353Z,90.83
2023-01-12T00:58:08.899Z,89.05
2023-01-12T01:03:05.477Z,89.42
2023-01-12T01:08:03.681Z,91.56
2023-01-12T01:13:00.966Z,92.39
2023-01-12T01:17:57.510Z,92.67
2023-01-12T01:22:54.159Z,94.40
2023-01-12T01:27:53.758Z,96.30
2023-01-12T01:32:51.029Z,96.82
2023-01-12T01:37:47.620Z,96.65
2023-01-12T01:42:44.142Z,94.61
2023-01-12T01:47:42.708Z,94.19
2023-01-12T01:52:42.413Z,93.61
2023-01-12T01:57:41.930Z,94.47
2023-01-12T02:02:39.099Z,93.99
2023-01-12T02:07:35.895Z,94.07
2023-01-12T02:12:51.187Z,93.94
2023-01-12T02:17:55.946Z,94.52
2023-01-12T02:23:10.440Z,94.62
2023-01-12T02:28:26.520Z,93.69
2023-01-12T02:33:27.714Z,94.62
2023-01-12T02:38:32.780Z,95.43
2023-01-12T02:43:30.418Z,95.87
2023-01-12T02:48:31.467Z,95.06
2023-01-12T02:53:30.177Z,95.46
2023-01-12T02:58:27.213Z,95.29
2023-01-12T03:03:24.651Z,94.07
2023-01-12T03:08:25.328Z,94.29
2023-01-12T03:13:23.810Z,92.78
2023-01-12T03:18:25.479Z,93.79
2023-01-12T03:23:26.357Z,92.24
2023-01-12T03:28:26.539Z,91.08
2023-01-12T03:33:27.437Z,92.27
2023-01-12T03:38:28.470Z,93.44
2023-01-12T03:43:28.782Z,92.71
2023-01-12T03:48:26.464Z,92.80
2023-01-12T03:53:23.232Z,91.31
2023-01-12T03:58:22.383Z,93.11
2023-01-12T04:03:18.932Z,92.93
2023-01-12T04:08:16.265Z,91.02
2023-01-12T04:13:14.286Z,90.02
2023-01-12T04:18:12.479Z,89.16
2023-01-12T04:23:09.370Z,89.21
2023-01-12T04:28:06.449Z,88.37
2023-01-12T04:33:07.447Z,88.25
2023-01-12T04:38:06.162Z,87.82
2023-01-12T04:43:07.793Z,88.89
2023-01-12T04:48:06.144Z,87.58
2023-01-12T04:53:03.622Z,87.74
2023-01-12T04:58:00.934Z,87.57
2023-01-12T05:02:58.845Z,89.06
2023-01-12T05:08:13.731Z,88.71
2023-01-12T05:13:11.045Z,87.81
2023-01-12T05:18:07.636Z,86.38
2023-01-12T05:23:04.278Z,86.67
2023-01-12T05:28:01.056Z,86.03
2023-01-12T05:32:58.436Z,86.39
2023-01-12T05:37:57.903Z,86.08
2023-01-12T05:43:12.645Z,86.00
2023-01-12T05:48:10.680Z,86.21
2023-01-12T05:53:07.447Z,86.08
2023-01-12T05:58:04.141Z,85.06
2023-01-12T06:03:03.551Z,85.05
2023-01-12T06:08:02.311Z,84.65
2023-01-12T06:13:17.137Z,84.23
2023-01-12T06:18:13.865Z,84.25
2023-01-12T06:23:17.497Z,83.89
2023-01-12T06:28:14.473Z,84.93
2023-01-12T06:33:12.796Z,84.08
2023-01-12T06:38:09.506Z,83.42
2023-01-12T06:43:06.993Z,84.29
2023-01-12T06:48:09.936Z,83.97
2023-01-12T06:53:06.888Z,83.30
2023-01-12T06:58:03.706Z,82.42
2023-01-12T07:03:01.128Z,82.44
2023-01-12T07:07:59.203Z,80.82
2023-01-12T07:12:59.494Z,81.18
2023-01-12T07:17:56.619Z,80.95
2023-01-12T07:22:57.734Z,80.79
2023-01-12T07:27:55.056Z,80.57
2023-01-12T07:33:15.099Z,81.48
2023-01-12T07:38:47.287Z,81.28
2023-01-12T07:44:10.964Z,81.40
2023-01-12T07:49:16.352Z,81.10
2023-01-12T07:54:16.158Z,81.29
2023-01-12T07:59:15.063Z,80.15
2023-01-12T08:04:22.163Z,80.35
2023-01-12T08:09:34.197Z,80.38
2023-01-12T08:14:53.508Z,81.33
2023-01-12T08:19:58.832Z,81.62
2023-01-12T08:24:59.383Z,81.55
2023-01-12T08:30:03.341Z,81.63
2023-01-12T08:35:03.173Z,81.54
2023-01-12T08:40:13.747Z,80.75
2023-01-12T08:45:15.015Z,81.24
2023-01-12T08:50:14.413Z,80.09
2023-01-12T08:55:22.521Z,80.21
2023-01-12T09:00:22.856Z,81.95
2023-01-12T09:05:19.740Z,82.62
2023-01-12T09:10:16.788Z,82.48
2023-01-12T09:15:14.320Z,82.53
2023-01-12T09:20:15.380Z,82.71
2023-01-12T09:25:15.373Z,83.00
2023-01-12T09:30:14.280Z,82.78
2023-01-12T09:35:11.650Z,81.59
2023-01-12T09:40:10.446Z,81.56
2023-01-12T09:45:35.062Z,81.44
2023-01-12T09:50:35.150Z,81.52
2023-01-12T09:55:36.745Z,81.19
2023-01-12T10:00:33.507Z,81.28
2023-01-12T10:05:40.309Z,80.83
2023-01-12T10:10:37.405Z,79.75
2023-01-12T10:15:39.573Z,79.25
2023-01-12T10:20:37.537Z,79.19
2023-01-12T10:25:37.833Z,79.79
2023-01-12T10:30:35.677Z,80.36
2023-01-12T10:35:32.648Z,80.20
2023-01-12T10:40:31.248Z,80.22
2023-01-12T10:45:29.712Z,80.60
2023-01-12T10:50:27.806Z,80.67
2023-01-12T10:55:30.281Z,80.98
2023-01-12T11:00:29.245Z,81.38
2023-01-12T11:05:27.340Z,80.96
2023-01-12T11:10:27.194Z,80.57
2023-01-12T11:15:25.319Z,80.91
2023-01-12T11:20:29.008Z,80.67
2023-01-12T11:25:31.918Z,80.43
2023-01-12T11:30:32.892Z,79.70
2023-01-12T11:35:34.241Z,79.72
2023-01-12T11:40:32.448Z,79.83
2023-01-12T11:45:34.415Z,79.81
2023-01-12T11:50:33.450Z,80.16
2023-01-12T11:55:37.826Z,80.10
2023-01-12T12:00:42.730Z,79.71
2023-01-12T12:05:45.650Z,79.57
2023-01-12T12:10:46.503Z,79.18
2023-01-12T12:15:50.416Z,79.86
2023-01-12T12:21:00.120Z,80.29
2023-01-12T12:26:03.204Z,79.94
2023-01-12T12:31:04.189Z,79.48
2023-01-12T12:36:06.570Z,79.47
2023-01-12T12:41:30.206Z,79.54
2023-01-12T12:46:38.137Z,79.33
2023-01-12T12:51:40.209Z,78.84
2023-01-12T12:56:37.784Z,78.80
2023-01-12T13:01:42.952Z,78.86
2023-01-12T13:06:48.394Z,78.88
2023-01-12T13:11:51.417Z,78.77
2023-01-12T13:16:52.720Z,77.71
2023-01-12T13:21:55.846Z,78.28
2023-01-12T13:26:53.369Z,78.01
2023-01-12T13:31:50.635Z,77.80
2023-01-12T13:37:00.848Z,78.14
2023-01-12T13:42:15.750Z,79.45
2023-01-12T13:47:16.131Z,80.22
2023-01-12T13:52:28.310Z,81.56
2023-01-12T13:57:26.733Z,83.05
2023-01-12T14:02:24.024Z,82.93
2023-01-12T14:07:29.264Z,82.94
2023-01-12T14:12:39.734Z,82.89
2023-01-12T14:17:53.230Z,82.26
2023-01-12T14:23:05.483Z,82.36
2023-01-12T14:28:02.672Z,83.07
2023-01-12T14:32:59.504Z,83.42
2023-01-12T14:37:58.689Z,83.42
2023-01-12T14:43:13.774Z,82.48
2023-01-12T14:48:23.848Z,82.19
2023-01-12T14:53:32.490Z,82.37
2023-01-12T14:58:29.093Z,82.67
2023-01-12T15:03:35.178Z,82.02
2023-01-12T15:08:36.808Z,82.94
2023-01-12T15:13:34.289Z,83.85
2023-01-12T15:18:49.538Z,84.03
2023-01-12T15:24:08.988Z,84.48
2023-01-12T15:29:08.910Z,83.50
2023-01-12T15:34:12.893Z,82.35
2023-01-12T15:39:12.629Z,82.71
2023-01-12T15:44:11.424Z,84.50
2023-01-12T15:49:09.976Z,85.54
2023-01-12T15:54:07.884Z,86.50
2023-01-12T15:59:05.320Z,87.67
2023-01-12T16:04:39.824Z,87.44
2023-01-12T16:09:18.914Z,88.46
2023-01-12T16:14:16.287Z,89.39
2023-01-12T16:19:20.767Z,90.76
2023-01-12T16:24:17.395Z,90.05
2023-01-12T16:29:15.491Z,91.01
2023-01-12T16:34:13.358Z,92.16
2023-01-12T16:39:11.745Z,92.04
2023-01-12T16:44:13.170Z,92.95
2023-01-12T16:49:10.000Z,92.86
2023-01-12T16:54:07.324Z,92.79
2023-01-12T16:59:03.941Z,92.47
2023-01-12T17:04:00.721Z,92.54
2023-01-12T17:09:00.853Z,92.15
2023-01-12T17:13:58.688Z,90.29
2023-01-12T17:18:55.368Z,90.59
2023-01-12T17:23:53.712Z,90.24
2023-01-12T17:28:52.821Z,92.03
2023-01-12T17:33:51.495Z,93.05
2023-01-12T17:38:48.252Z,94.10
2023-01-12T17:43:44.988Z,94.09
2023-01-12T17:48:44.874Z,93.33
2023-01-12T17:53:42.140Z,92.74
2023-01-12T17:58:40.540Z,91.53
2023-01-12T18:03:37.339Z,91.54
2023-01-12T18:08:33.943Z,91.30
2023-01-12T18:13:31.220Z,91.45
2023-01-12T18:18:28.125Z,91.97
2023-01-12T18:23:24.730Z,91.94
2023-01-12T18:28:21.496Z,92.14
2023-01-12T18:33:19.887Z,91.63
2023-01-12T18:38:16.707Z,91.71
2023-01-12T18:43:13.453Z,91.79
2023-01-12T18:48:23.757Z,91.84
2023-01-12T18:53:24.425Z,91.94
2023-01-12T18:58:22.057Z,92.24
2023-01-12T19:03:18.707Z,91.25
2023-01-12T19:08:35.604Z,90.81
2023-01-12T19:13:51.155Z,90.63
2023-01-12T19:18:47.875Z,90.57
2023-01-12T19:24:02.772Z,90.63
2023-01-12T19:29:00.035Z,91.41
2023-01-12T19:33:57.106Z,90.28
2023-01-12T19:38:54.213Z,90.47
2023-01-12T19:43:50.867Z,90.21
2023-01-12T19:48:48.192Z,90.49
2023-01-12T19:53:46.917Z,90.14
2023-01-12T19:58:45.880Z,90.27
2023-01-12T20:03:48.407Z,90.81
2023-01-12T20:08:53.906Z,92.43
2023-01-12T20:13:50.684Z,93.34
2023-01-12T20:18:48.153Z,93.54
2023-01-12T20:23:45.476Z,93.18
2023-01-12T20:28:42.090Z,93.14
2023-01-12T20:33:41.650Z,94.09
2023-01-12T20:38:40.641Z,93.08
2023-01-12T20:43:37.999Z,93.36
2023-01-12T20:48:34.822Z,94.20
2023-01-12T20:53:31.516Z,94.36
2023-01-12T20:58:28.315Z,94.59
2023-01-12T21:03:25.606Z,96.32
2023-01-12T21:08:22.240Z,95.39
2023-01-12T21:13:19.468Z,95.61
2023-01-12T21:18:16.419Z,94.09
2023-01-12T21:23:13.703Z,92.00
2023-01-12T21:28:10.584Z,93.07
2023-01-12T21:33:07.390Z,92.19
2023-01-12T21:38:04.249Z,91.89
2023-01-12T21:43:12.746Z,92.81
2023-01-12T21:48:10.218Z,93.08
2023-01-12T21:53:07.084Z,93.20
2023-01-12T21:58:04.422Z,93.86
2023-01-12T22:03:01.031Z,93.89
2023-01-12T22:07:57.551Z,94.29
2023-01-12T22:12:56.290Z,93.96
2023-01-12T22:17:53.600Z,94.02
2023-01-12T22:22:50.247Z,94.37
2023-01-12T22:27:47.004Z,92.45
2023-01-12T22:32:44.142Z,93.17
2023-01-12T22:37:41.619Z,92.15
2023-01-12T22:42:56.499Z,92.08
2023-01-12T22:47:53.275Z,91.07
2023-01-12T22:52:52.267Z,91.78
2023-01-12T22:57:48.988Z,91.37
2023-01-12T23:03:01.591Z,90.32
2023-01-12T23:07:59.518Z,90.33
2023-01-12T23:13:14.115Z,90.09
2023-01-12T23:18:11.255Z,90.25
2023-01-12T23:23:09.193Z,90.67
2023-01-12T23:28:08.532Z,90.79
2023-01-12T23:33:05.926Z,90.44
2023-01-12T23:38:02.892Z,89.67
2023-01-12T23:43:00.922Z,88.57
2023-01-12T23:48:00.462Z,88.19
2023-01-12T23:52:57.151Z,88.89
2023-01-12T23:57:53.712Z,90.46
